Airfield :
LOGIN :

Register | Disclaimer

   EN    FR    IT 

 










Legend :    VFR   Marginal VFR   IFR   Intensive IFR   Very Intensive IFR
Visi :
Ceiling :
>= 8 km
>= 3000ft
5 to 8 km
1000 to 3000 ft
1500m to 5 km
500 to 1000 ft
800 to 1500m
200 to 500 ft
< 800m
< 200 ft
Symbols :   Thunderstorms  Fog  Heavy snow  Heavy precipitations  Wind > 20 kt
SIGMETs :     Misc.  Thunderstorms  Icing  Turbulence  Mountain Waves  Volcanic Ashes






- Airport Elevation : 13 ft
- IATA code : LYX


EGMD - Lydd

CURRENT METAR :
  • 131320Z 19012KT CAVOK 25/19 Q1013

EXPIRED METARs :
  • 131250Z 20011KT CAVOK 25/18 Q1012
  • 131220Z 20010KT CAVOK 25/20 Q1012
  • 131150Z 18009KT CAVOK 26/19 Q1012
  • 131120Z 17008KT 9000 NSC 25/19 Q1012
  • 131050Z 16012KT 9000 NSC 24/19 Q1013

TAF TAF EGMD
Valid from the 13 at 12:00 until the 13 at 21:00 UTC


131057Z 1312/1321 17008KT 8000 FEW045
BECMG 1312/1314 9999
PROB30
TEMPO 1312/1321 VRB15G25KT 3000 +TSRAGR
ATIS : +44 1797 322 422



MET'MAP, your aeronautical weather chart ! - Copyright ORBIFLY December 2007 - Disclaimer

ORBIFLY MET'MAP TEAM :

Programming & Development : Alexandra Zaïnal
Concept & original design : Baudouin d'Aumeries
Assistance for programming : Marc-Olivier Méhu
Technical & hardware support : Manuel Goepfert

Contact : metmap@orbifly.com




SOURCES & CREDITS :

   NOAA